sensor_id;sensor_type;location;lat;lon;timestamp;pressure;altitude;pressure_sealevel;temperature;humidity
6395;BME280;3230;42.588;23.358;2023-02-12T00:01:22;91796.09;;;-3.66;55.06
6395;BME280;3230;42.588;23.358;2023-02-12T00:03:47;91804.44;;;-3.72;58.71
6395;BME280;3230;42.588;23.358;2023-02-12T00:06:13;91794.81;;;-3.93;61.03
6395;BME280;3230;42.588;23.358;2023-02-12T00:08:39;91785.81;;;-3.89;59.31
6395;BME280;3230;42.588;23.358;2023-02-12T00:11:15;91793.03;;;-3.93;57.49
6395;BME280;3230;42.588;23.358;2023-02-12T00:13:42;91802.38;;;-4.08;60.28
6395;BME280;3230;42.588;23.358;2023-02-12T00:16:10;91789.00;;;-4.19;62.44
6395;BME280;3230;42.588;23.358;2023-02-12T00:18:36;91793.47;;;-4.21;63.59
6395;BME280;3230;42.588;23.358;2023-02-12T00:21:02;91799.59;;;-4.38;66.54
6395;BME280;3230;42.588;23.358;2023-02-12T00:23:27;91794.31;;;-4.28;64.09
6395;BME280;3230;42.588;23.358;2023-02-12T00:25:53;91787.59;;;-4.38;64.75
6395;BME280;3230;42.588;23.358;2023-02-12T00:28:18;91788.06;;;-4.34;65.19
6395;BME280;3230;42.588;23.358;2023-02-12T00:30:44;91785.50;;;-4.34;69.53
6395;BME280;3230;42.588;23.358;2023-02-12T00:33:09;91779.81;;;-4.53;70.53
6395;BME280;3230;42.588;23.358;2023-02-12T00:35:34;91791.28;;;-4.40;69.05
6395;BME280;3230;42.588;23.358;2023-02-12T00:38:00;91782.03;;;-4.50;66.95
6395;BME280;3230;42.588;23.358;2023-02-12T00:40:25;91782.69;;;-4.47;67.76
6395;BME280;3230;42.588;23.358;2023-02-12T00:42:51;91775.31;;;-4.51;69.86
6395;BME280;3230;42.588;23.358;2023-02-12T00:45:16;91771.56;;;-4.71;70.96
6395;BME280;3230;42.588;23.358;2023-02-12T00:47:42;91771.69;;;-4.73;72.99
6395;BME280;3230;42.588;23.358;2023-02-12T00:50:07;91767.75;;;-4.92;75.32
6395;BME280;3230;42.588;23.358;2023-02-12T00:52:33;91769.97;;;-4.89;75.32
6395;BME280;3230;42.588;23.358;2023-02-12T00:54:58;91768.19;;;-4.80;73.87
6395;BME280;3230;42.588;23.358;2023-02-12T00:57:23;91762.78;;;-4.85;69.29
6395;BME280;3230;42.588;23.358;2023-02-12T00:59:49;91773.00;;;-4.85;66.99
6395;BME280;3230;42.588;23.358;2023-02-12T01:02:14;91764.22;;;-4.91;68.72
6395;BME280;3230;42.588;23.358;2023-02-12T01:04:40;91762.19;;;-4.95;72.03
6395;BME280;3230;42.588;23.358;2023-02-12T01:07:05;91764.22;;;-4.91;72.25
6395;BME280;3230;42.588;23.358;2023-02-12T01:09:31;91757.19;;;-4.89;71.84
6395;BME280;3230;42.588;23.358;2023-02-12T01:11:56;91753.69;;;-4.96;70.27
6395;BME280;3230;42.588;23.358;2023-02-12T01:14:22;91738.72;;;-5.07;72.80
6395;BME280;3230;42.588;23.358;2023-02-12T01:16:47;91742.38;;;-5.10;73.57
6395;BME280;3230;42.588;23.358;2023-02-12T01:19:12;91752.28;;;-5.07;75.68
6395;BME280;3230;42.588;23.358;2023-02-12T01:21:38;91753.56;;;-5.11;76.47
6395;BME280;3230;42.588;23.358;2023-02-12T01:24:04;91756.75;;;-5.09;74.67
6395;BME280;3230;42.588;23.358;2023-02-12T01:26:30;91753.38;;;-4.85;69.71
6395;BME280;3230;42.588;23.358;2023-02-12T01:28:57;91760.38;;;-4.78;69.88
6395;BME280;3230;42.588;23.358;2023-02-12T01:31:25;91762.59;;;-4.75;72.58
6395;BME280;3230;42.588;23.358;2023-02-12T01:33:54;91758.91;;;-4.73;68.97
6395;BME280;3230;42.588;23.358;2023-02-12T01:36:20;91767.72;;;-4.75;72.72
6395;BME280;3230;42.588;23.358;2023-02-12T01:38:46;91754.75;;;-4.74;71.04
6395;BME280;3230;42.588;23.358;2023-02-12T01:41:14;91750.78;;;-4.76;72.52
6395;BME280;3230;42.588;23.358;2023-02-12T01:43:41;91747.44;;;-4.85;70.54
6395;BME280;3230;42.588;23.358;2023-02-12T01:46:09;91730.31;;;-4.68;64.10
6395;BME280;3230;42.588;23.358;2023-02-12T01:48:46;91738.91;;;-4.61;61.58
6395;BME280;3230;42.588;23.358;2023-02-12T01:51:15;91727.25;;;-4.63;65.53
6395;BME280;3230;42.588;23.358;2023-02-12T01:53:49;91717.72;;;-4.86;72.41
6395;BME280;3230;42.588;23.358;2023-02-12T01:56:16;91729.06;;;-4.72;72.45
6395;BME280;3230;42.588;23.358;2023-02-12T01:58:43;91723.13;;;-4.73;72.53
6395;BME280;3230;42.588;23.358;2023-02-12T02:01:14;91715.31;;;-4.71;73.24
6395;BME280;3230;42.588;23.358;2023-02-12T02:03:44;91704.63;;;-4.91;77.04
6395;BME280;3230;42.588;23.358;2023-02-12T02:06:15;91711.19;;;-4.89;77.89
6395;BME280;3230;42.588;23.358;2023-02-12T02:08:41;91707.84;;;-4.98;78.59
6395;BME280;3230;42.588;23.358;2023-02-12T02:11:07;91710.22;;;-4.88;78.18
6395;BME280;3230;42.588;23.358;2023-02-12T02:13:51;91720.75;;;-4.91;76.99
6395;BME280;3230;42.588;23.358;2023-02-12T02:16:36;91714.97;;;-4.76;75.59
6395;BME280;3230;42.588;23.358;2023-02-12T02:21:56;91722.91;;;-5.11;76.89
6395;BME280;3230;42.588;23.358;2023-02-12T02:27:19;91722.75;;;-5.51;80.33
6395;BME280;3230;42.588;23.358;2023-02-12T02:32:28;91723.06;;;-5.37;79.83
6395;BME280;3230;42.588;23.358;2023-02-12T02:35:04;91719.56;;;-5.20;75.37
6395;BME280;3230;42.588;23.358;2023-02-12T02:37:39;91720.16;;;-5.09;74.29
6395;BME280;3230;42.588;23.358;2023-02-12T02:40:17;91707.38;;;-5.01;74.60
6395;BME280;3230;42.588;23.358;2023-02-12T02:45:29;91730.66;;;-4.79;72.49
6395;BME280;3230;42.588;23.358;2023-02-12T02:48:23;91720.09;;;-4.76;69.43
6395;BME280;3230;42.588;23.358;2023-02-12T02:50:51;91719.09;;;-4.59;69.02
6395;BME280;3230;42.588;23.358;2023-02-12T02:53:24;91727.22;;;-4.55;70.58
6395;BME280;3230;42.588;23.358;2023-02-12T02:55:53;91729.28;;;-4.51;70.06
6395;BME280;3230;42.588;23.358;2023-02-12T02:58:26;91729.50;;;-4.29;67.00
6395;BME280;3230;42.588;23.358;2023-02-12T03:00:54;91729.16;;;-4.18;67.92
6395;BME280;3230;42.588;23.358;2023-02-12T03:05:48;91713.66;;;-3.93;75.29
6395;BME280;3230;42.588;23.358;2023-02-12T03:08:22;91733.28;;;-3.85;73.32
6395;BME280;3230;42.588;23.358;2023-02-12T03:10:54;91709.84;;;-3.50;76.57
6395;BME280;3230;42.588;23.358;2023-02-12T03:13:46;91714.44;;;-3.23;73.64
6395;BME280;3230;42.588;23.358;2023-02-12T03:16:26;91730.63;;;-3.07;77.72
6395;BME280;3230;42.588;23.358;2023-02-12T03:18:58;91717.81;;;-3.07;69.66
6395;BME280;3230;42.588;23.358;2023-02-12T03:21:38;91731.69;;;-3.16;66.20
6395;BME280;3230;42.588;23.358;2023-02-12T03:26:50;91723.34;;;-2.50;80.90
6395;BME280;3230;42.588;23.358;2023-02-12T03:29:16;91715.19;;;-2.24;80.90
6395;BME280;3230;42.588;23.358;2023-02-12T03:36:59;91713.34;;;-1.57;77.25
6395;BME280;3230;42.588;23.358;2023-02-12T03:39:31;91710.63;;;-1.27;76.67
6395;BME280;3230;42.588;23.358;2023-02-12T03:44:47;91706.91;;;-0.96;72.83
6395;BME280;3230;42.588;23.358;2023-02-12T03:47:23;91710.50;;;-0.90;71.52
6395;BME280;3230;42.588;23.358;2023-02-12T03:50:16;91704.47;;;-0.76;69.22
6395;BME280;3230;42.588;23.358;2023-02-12T03:52:44;91709.19;;;-0.79;68.76
6395;BME280;3230;42.588;23.358;2023-02-12T03:55:11;91695.22;;;-0.70;67.93
6395;BME280;3230;42.588;23.358;2023-02-12T03:57:43;91700.16;;;-0.69;69.18
6395;BME280;3230;42.588;23.358;2023-02-12T04:00:16;91689.09;;;-0.62;65.85
6395;BME280;3230;42.588;23.358;2023-02-12T04:02:42;91698.06;;;-0.58;70.34
6395;BME280;3230;42.588;23.358;2023-02-12T04:05:19;91698.72;;;-0.43;67.89
6395;BME280;3230;42.588;23.358;2023-02-12T04:07:44;91688.19;;;-0.48;66.93
6395;BME280;3230;42.588;23.358;2023-02-12T04:10:10;91686.81;;;-0.44;65.69
6395;BME280;3230;42.588;23.358;2023-02-12T04:12:49;91678.13;;;-0.43;67.18
6395;BME280;3230;42.588;23.358;2023-02-12T04:15:36;91695.56;;;-0.45;66.42
6395;BME280;3230;42.588;23.358;2023-02-12T04:18:14;91686.25;;;-0.39;65.97
6395;BME280;3230;42.588;23.358;2023-02-12T04:23:36;91689.25;;;-0.36;67.04
6395;BME280;3230;42.588;23.358;2023-02-12T04:26:22;91694.38;;;-0.42;67.17
6395;BME280;3230;42.588;23.358;2023-02-12T04:31:29;91693.19;;;-0.40;65.94
6395;BME280;3230;42.588;23.358;2023-02-12T04:36:34;91720.91;;;-0.42;65.49
6395;BME280;3230;42.588;23.358;2023-02-12T04:39:05;91728.19;;;-0.52;66.40
6395;BME280;3230;42.588;23.358;2023-02-12T04:41:36;91741.72;;;-0.72;68.71
6395;BME280;3230;42.588;23.358;2023-02-12T04:44:23;91731.09;;;-0.62;67.63
6395;BME280;3230;42.588;23.358;2023-02-12T04:46:50;91732.63;;;-0.68;68.15
6395;BME280;3230;42.588;23.358;2023-02-12T04:49:18;91734.47;;;-0.61;66.98
6395;BME280;3230;42.588;23.358;2023-02-12T04:51:44;91737.22;;;-0.63;68.26
6395;BME280;3230;42.588;23.358;2023-02-12T04:54:11;91736.31;;;-0.77;66.91
6395;BME280;3230;42.588;23.358;2023-02-12T04:56:37;91733.94;;;-0.78;69.47
6395;BME280;3230;42.588;23.358;2023-02-12T04:59:02;91732.75;;;-0.83;69.08
6395;BME280;3230;42.588;23.358;2023-02-12T05:01:28;91734.63;;;-0.91;69.39
6395;BME280;3230;42.588;23.358;2023-02-12T05:03:53;91727.03;;;-0.78;67.76
6395;BME280;3230;42.588;23.358;2023-02-12T05:06:19;91726.78;;;-0.83;67.69
6395;BME280;3230;42.588;23.358;2023-02-12T05:08:44;91728.78;;;-0.85;66.59
6395;BME280;3230;42.588;23.358;2023-02-12T05:11:10;91725.19;;;-0.84;66.65
6395;BME280;3230;42.588;23.358;2023-02-12T05:13:36;91731.66;;;-0.67;64.35
6395;BME280;3230;42.588;23.358;2023-02-12T05:16:06;91736.94;;;-0.75;64.62
6395;BME280;3230;42.588;23.358;2023-02-12T05:18:33;91725.94;;;-0.90;65.67
6395;BME280;3230;42.588;23.358;2023-02-12T05:21:01;91720.63;;;-0.89;65.91
6395;BME280;3230;42.588;23.358;2023-02-12T05:23:29;91721.06;;;-0.85;65.47
6395;BME280;3230;42.588;23.358;2023-02-12T05:25:58;91729.13;;;-0.88;66.51
6395;BME280;3230;42.588;23.358;2023-02-12T05:28:24;91731.94;;;-0.83;68.73
6395;BME280;3230;42.588;23.358;2023-02-12T05:30:50;91745.97;;;-0.86;70.81
6395;BME280;3230;42.588;23.358;2023-02-12T05:33:15;91742.97;;;-0.89;75.45
6395;BME280;3230;42.588;23.358;2023-02-12T05:35:41;91748.00;;;-1.03;79.69
6395;BME280;3230;42.588;23.358;2023-02-12T05:38:06;91745.63;;;-1.04;82.59
6395;BME280;3230;42.588;23.358;2023-02-12T05:40:32;91744.47;;;-1.23;86.77
6395;BME280;3230;42.588;23.358;2023-02-12T05:42:58;91738.44;;;-1.37;89.15
6395;BME280;3230;42.588;23.358;2023-02-12T05:45:23;91747.31;;;-1.40;90.48
6395;BME280;3230;42.588;23.358;2023-02-12T05:47:52;91745.75;;;-1.34;91.37
6395;BME280;3230;42.588;23.358;2023-02-12T05:50:18;91749.50;;;-1.37;91.27
6395;BME280;3230;42.588;23.358;2023-02-12T05:52:47;91748.16;;;-1.33;91.19
6395;BME280;3230;42.588;23.358;2023-02-12T05:55:12;91757.88;;;-1.28;91.00
6395;BME280;3230;42.588;23.358;2023-02-12T05:57:37;91760.53;;;-1.21;90.40
6395;BME280;3230;42.588;23.358;2023-02-12T06:00:09;91757.41;;;-1.17;90.25
6395;BME280;3230;42.588;23.358;2023-02-12T06:02:35;91755.44;;;-1.15;89.79
6395;BME280;3230;42.588;23.358;2023-02-12T06:05:00;91759.03;;;-1.09;90.14
6395;BME280;3230;42.588;23.358;2023-02-12T06:07:26;91775.69;;;-1.05;90.30
6395;BME280;3230;42.588;23.358;2023-02-12T06:09:52;91770.50;;;-1.11;90.24
6395;BME280;3230;42.588;23.358;2023-02-12T06:12:19;91765.97;;;-1.09;90.59
6395;BME280;3230;42.588;23.358;2023-02-12T06:14:44;91759.66;;;-1.07;90.88
6395;BME280;3230;42.588;23.358;2023-02-12T06:17:10;91766.56;;;-1.07;91.17
6395;BME280;3230;42.588;23.358;2023-02-12T06:19:35;91779.13;;;-0.98;91.09
6395;BME280;3230;42.588;23.358;2023-02-12T06:22:01;91781.34;;;-0.94;90.97
6395;BME280;3230;42.588;23.358;2023-02-12T06:24:26;91776.97;;;-0.94;90.94
6395;BME280;3230;42.588;23.358;2023-02-12T06:26:52;91787.34;;;-0.87;90.82
6395;BME280;3230;42.588;23.358;2023-02-12T06:29:18;91785.66;;;-0.73;90.71
6395;BME280;3230;42.588;23.358;2023-02-12T06:31:44;91787.91;;;-0.63;89.47
6395;BME280;3230;42.588;23.358;2023-02-12T06:34:11;91791.38;;;-0.78;89.72
6395;BME280;3230;42.588;23.358;2023-02-12T06:36:39;91796.63;;;-0.65;90.10
6395;BME280;3230;42.588;23.358;2023-02-12T06:39:05;91786.38;;;-0.58;89.53
6395;BME280;3230;42.588;23.358;2023-02-12T06:41:30;91787.97;;;-0.57;89.82
6395;BME280;3230;42.588;23.358;2023-02-12T06:43:55;91799.13;;;-0.43;88.11
6395;BME280;3230;42.588;23.358;2023-02-12T06:46:21;91808.13;;;-0.32;86.70
6395;BME280;3230;42.588;23.358;2023-02-12T06:48:47;91793.94;;;-0.21;86.67
6395;BME280;3230;42.588;23.358;2023-02-12T06:51:16;91802.78;;;-0.30;87.04
6395;BME280;3230;42.588;23.358;2023-02-12T06:53:42;91793.97;;;-0.43;88.66
6395;BME280;3230;42.588;23.358;2023-02-12T06:56:10;91802.22;;;-0.54;88.67
6395;BME280;3230;42.588;23.358;2023-02-12T06:58:39;91797.69;;;-0.52;88.53
6395;BME280;3230;42.588;23.358;2023-02-12T07:01:10;91795.97;;;-0.45;87.94
6395;BME280;3230;42.588;23.358;2023-02-12T07:03:40;91809.22;;;-0.48;88.88
6395;BME280;3230;42.588;23.358;2023-02-12T07:06:06;91794.66;;;-0.62;89.01
6395;BME280;3230;42.588;23.358;2023-02-12T07:08:31;91794.66;;;-0.62;89.06
6395;BME280;3230;42.588;23.358;2023-02-12T07:10:57;91801.59;;;-0.63;90.26
6395;BME280;3230;42.588;23.358;2023-02-12T07:13:22;91793.13;;;-0.50;90.11
6395;BME280;3230;42.588;23.358;2023-02-12T07:15:47;91793.75;;;-0.48;89.43
6395;BME280;3230;42.588;23.358;2023-02-12T07:18:13;91813.75;;;-0.50;89.71
6395;BME280;3230;42.588;23.358;2023-02-12T07:20:38;91789.38;;;-0.54;89.74
6395;BME280;3230;42.588;23.358;2023-02-12T07:23:04;91803.75;;;-0.60;90.05
6395;BME280;3230;42.588;23.358;2023-02-12T07:25:29;91791.31;;;-0.56;90.03
6395;BME280;3230;42.588;23.358;2023-02-12T07:27:54;91794.28;;;-0.59;90.20
6395;BME280;3230;42.588;23.358;2023-02-12T07:30:20;91804.81;;;-0.54;90.31
6395;BME280;3230;42.588;23.358;2023-02-12T07:32:45;91798.72;;;-0.46;90.18
6395;BME280;3230;42.588;23.358;2023-02-12T07:35:11;91805.22;;;-0.51;90.94
6395;BME280;3230;42.588;23.358;2023-02-12T07:37:36;91809.69;;;-0.38;90.94
6395;BME280;3230;42.588;23.358;2023-02-12T07:40:02;91814.31;;;-0.26;89.24
6395;BME280;3230;42.588;23.358;2023-02-12T07:42:27;91819.59;;;-0.35;89.53
6395;BME280;3230;42.588;23.358;2023-02-12T07:44:54;91814.50;;;-0.56;90.38
6395;BME280;3230;42.588;23.358;2023-02-12T07:47:19;91818.47;;;-0.54;91.03
6395;BME280;3230;42.588;23.358;2023-02-12T07:49:45;91814.78;;;-0.73;91.51
6395;BME280;3230;42.588;23.358;2023-02-12T07:52:10;91822.63;;;-0.81;92.48
6395;BME280;3230;42.588;23.358;2023-02-12T07:54:36;91822.66;;;-0.74;92.42
6395;BME280;3230;42.588;23.358;2023-02-12T07:57:01;91824.56;;;-0.83;93.07
6395;BME280;3230;42.588;23.358;2023-02-12T07:59:27;91819.25;;;-1.03;93.57
6395;BME280;3230;42.588;23.358;2023-02-12T08:01:53;91820.66;;;-1.22;94.43
6395;BME280;3230;42.588;23.358;2023-02-12T08:04:21;91815.88;;;-1.25;95.39
6395;BME280;3230;42.588;23.358;2023-02-12T08:06:49;91829.03;;;-1.14;95.46
6395;BME280;3230;42.588;23.358;2023-02-12T08:09:20;91835.34;;;-1.16;95.73
6395;BME280;3230;42.588;23.358;2023-02-12T08:11:46;91835.94;;;-1.36;96.15
6395;BME280;3230;42.588;23.358;2023-02-12T08:14:14;91840.34;;;-1.30;97.01
6395;BME280;3230;42.588;23.358;2023-02-12T08:16:41;91843.56;;;-1.27;97.35
6395;BME280;3230;42.588;23.358;2023-02-12T08:19:08;91842.31;;;-1.32;97.46
6395;BME280;3230;42.588;23.358;2023-02-12T08:21:33;91843.59;;;-1.42;98.07
6395;BME280;3230;42.588;23.358;2023-02-12T08:23:59;91839.25;;;-1.42;98.70
6395;BME280;3230;42.588;23.358;2023-02-12T08:26:28;91846.75;;;-1.40;98.44
6395;BME280;3230;42.588;23.358;2023-02-12T08:29:00;91848.13;;;-1.45;98.61
6395;BME280;3230;42.588;23.358;2023-02-12T08:31:29;91864.94;;;-1.42;99.00
6395;BME280;3230;42.588;23.358;2023-02-12T08:33:55;91867.44;;;-1.49;98.95
6395;BME280;3230;42.588;23.358;2023-02-12T08:36:29;91852.09;;;-1.42;98.40
6395;BME280;3230;42.588;23.358;2023-02-12T08:38:58;91852.34;;;-1.37;98.69
6395;BME280;3230;42.588;23.358;2023-02-12T08:41:28;91851.47;;;-1.29;98.45
6395;BME280;3230;42.588;23.358;2023-02-12T08:44:00;91857.34;;;-1.14;98.15
6395;BME280;3230;42.588;23.358;2023-02-12T08:46:28;91855.44;;;-1.05;98.27
6395;BME280;3230;42.588;23.358;2023-02-12T08:48:57;91868.44;;;-0.91;97.97
6395;BME280;3230;42.588;23.358;2023-02-12T08:51:28;91866.13;;;-0.86;97.94
6395;BME280;3230;42.588;23.358;2023-02-12T08:53:56;91877.59;;;-0.89;96.87
6395;BME280;3230;42.588;23.358;2023-02-12T08:56:23;91876.41;;;-0.86;96.32
6395;BME280;3230;42.588;23.358;2023-02-12T08:58:49;91875.38;;;-0.92;96.25
6395;BME280;3230;42.588;23.358;2023-02-12T09:01:26;91875.91;;;-0.97;96.60
6395;BME280;3230;42.588;23.358;2023-02-12T09:03:52;91873.84;;;-0.86;96.70
6395;BME280;3230;42.588;23.358;2023-02-12T09:06:20;91887.00;;;-0.96;97.47
6395;BME280;3230;42.588;23.358;2023-02-12T09:08:46;91884.88;;;-0.92;97.48
6395;BME280;3230;42.588;23.358;2023-02-12T09:11:14;91888.00;;;-0.75;97.07
6395;BME280;3230;42.588;23.358;2023-02-12T09:13:45;91891.56;;;-0.76;96.71
6395;BME280;3230;42.588;23.358;2023-02-12T09:16:10;91889.28;;;-0.65;96.67
6395;BME280;3230;42.588;23.358;2023-02-12T09:18:37;91892.09;;;-0.59;96.06
6395;BME280;3230;42.588;23.358;2023-02-12T09:21:10;91895.47;;;-0.59;96.44
6395;BME280;3230;42.588;23.358;2023-02-12T09:23:37;91899.59;;;-0.65;96.41
6395;BME280;3230;42.588;23.358;2023-02-12T09:26:04;91910.28;;;-0.61;96.63
6395;BME280;3230;42.588;23.358;2023-02-12T09:28:30;91904.34;;;-0.61;96.88
6395;BME280;3230;42.588;23.358;2023-02-12T09:30:55;91898.84;;;-0.58;97.18
6395;BME280;3230;42.588;23.358;2023-02-12T09:33:20;91895.38;;;-0.44;96.72
6395;BME280;3230;42.588;23.358;2023-02-12T09:35:47;91895.38;;;-0.44;96.89
6395;BME280;3230;42.588;23.358;2023-02-12T09:38:12;91899.00;;;-0.38;96.64
6395;BME280;3230;42.588;23.358;2023-02-12T09:43:54;91894.13;;;-0.05;96.06
6395;BME280;3230;42.588;23.358;2023-02-12T09:49:14;91903.34;;;0.46;93.84
6395;BME280;3230;42.588;23.358;2023-02-12T09:51:48;91903.97;;;0.55;92.51
6395;BME280;3230;42.588;23.358;2023-02-12T09:54:24;91905.94;;;0.53;91.89
6395;BME280;3230;42.588;23.358;2023-02-12T09:56:54;91912.59;;;0.76;92.09
6395;BME280;3230;42.588;23.358;2023-02-12T09:59:37;91919.25;;;0.57;91.86
6395;BME280;3230;42.588;23.358;2023-02-12T10:02:15;91924.84;;;0.60;91.94
6395;BME280;3230;42.588;23.358;2023-02-12T10:04:45;91915.25;;;0.89;91.48
6395;BME280;3230;42.588;23.358;2023-02-12T10:18:12;91924.97;;;0.52;92.00
6395;BME280;3230;42.588;23.358;2023-02-12T10:23:51;91933.03;;;0.71;92.11
6395;BME280;3230;42.588;23.358;2023-02-12T10:26:27;91922.47;;;0.66;91.92
6395;BME280;3230;42.588;23.358;2023-02-12T10:28:53;91930.44;;;0.71;92.98
6395;BME280;3230;42.588;23.358;2023-02-12T10:31:31;91922.78;;;0.91;92.29
6395;BME280;3230;42.588;23.358;2023-02-12T10:33:59;91924.81;;;1.02;90.89
6395;BME280;3230;42.588;23.358;2023-02-12T10:36:41;91931.19;;;1.06;91.11
6395;BME280;3230;42.588;23.358;2023-02-12T10:41:45;91940.22;;;0.89;90.68
6395;BME280;3230;42.588;23.358;2023-02-12T10:44:11;91932.56;;;0.60;92.70
6395;BME280;3230;42.588;23.358;2023-02-12T10:46:37;91937.78;;;0.74;92.50
6395;BME280;3230;42.588;23.358;2023-02-12T10:49:04;91937.78;;;0.74;92.57
6395;BME280;3230;42.588;23.358;2023-02-12T10:54:36;91945.31;;;0.69;93.36
6395;BME280;3230;42.588;23.358;2023-02-12T10:57:23;91941.50;;;0.64;93.65
6395;BME280;3230;42.588;23.358;2023-02-12T10:59:52;91941.69;;;0.56;93.98
6395;BME280;3230;42.588;23.358;2023-02-12T11:02:24;91943.22;;;0.51;94.55
6395;BME280;3230;42.588;23.358;2023-02-12T11:04:51;91935.28;;;0.52;94.76
6395;BME280;3230;42.588;23.358;2023-02-12T11:07:18;91930.81;;;0.61;95.01
6395;BME280;3230;42.588;23.358;2023-02-12T11:09:46;91936.81;;;0.75;94.58
6395;BME280;3230;42.588;23.358;2023-02-12T11:17:43;91940.53;;;1.14;92.69
6395;BME280;3230;42.588;23.358;2023-02-12T11:20:40;91944.19;;;1.40;92.06
6395;BME280;3230;42.588;23.358;2023-02-12T11:23:25;91940.84;;;1.73;91.35
6395;BME280;3230;42.588;23.358;2023-02-12T11:29:20;91937.28;;;2.14;89.21
6395;BME280;3230;42.588;23.358;2023-02-12T11:32:04;91945.44;;;2.38;88.24
6395;BME280;3230;42.588;23.358;2023-02-12T11:34:30;91938.81;;;2.76;86.52
6395;BME280;3230;42.588;23.358;2023-02-12T11:36:56;91946.88;;;3.06;85.59
6395;BME280;3230;42.588;23.358;2023-02-12T11:39:31;91943.81;;;3.23;83.26
6395;BME280;3230;42.588;23.358;2023-02-12T11:42:01;91938.53;;;3.43;81.05
6395;BME280;3230;42.588;23.358;2023-02-12T11:44:38;91936.88;;;3.55;80.10
6395;BME280;3230;42.588;23.358;2023-02-12T11:47:08;91935.56;;;3.39;80.44
6395;BME280;3230;42.588;23.358;2023-02-12T11:49:58;91939.06;;;3.58;78.62
6395;BME280;3230;42.588;23.358;2023-02-12T11:52:33;91950.06;;;3.47;79.71
6395;BME280;3230;42.588;23.358;2023-02-12T11:55:03;91943.81;;;3.68;77.82
6395;BME280;3230;42.588;23.358;2023-02-12T12:00:38;91945.09;;;3.45;79.95
6395;BME280;3230;42.588;23.358;2023-02-12T12:05:41;91963.78;;;3.09;78.96
6395;BME280;3230;42.588;23.358;2023-02-12T12:08:24;91954.66;;;2.99;78.38
6395;BME280;3230;42.588;23.358;2023-02-12T12:10:58;91951.84;;;3.14;78.86
6395;BME280;3230;42.588;23.358;2023-02-12T12:13:31;91962.00;;;3.09;80.54
6395;BME280;3230;42.588;23.358;2023-02-12T12:16:10;91962.19;;;3.14;80.56
6395;BME280;3230;42.588;23.358;2023-02-12T12:18:58;91966.56;;;3.14;79.87
6395;BME280;3230;42.588;23.358;2023-02-12T12:21:55;91965.16;;;3.18;80.44
6395;BME280;3230;42.588;23.358;2023-02-12T12:24:37;91967.78;;;3.11;81.16
6395;BME280;3230;42.588;23.358;2023-02-12T12:27:14;91969.31;;;3.26;80.80
6395;BME280;3230;42.588;23.358;2023-02-12T12:30:02;91961.41;;;3.07;82.01
6395;BME280;3230;42.588;23.358;2023-02-12T12:32:33;91962.59;;;3.11;82.47
6395;BME280;3230;42.588;23.358;2023-02-12T12:35:00;91965.56;;;3.15;82.46
6395;BME280;3230;42.588;23.358;2023-02-12T12:40:22;91990.00;;;3.32;80.92
6395;BME280;3230;42.588;23.358;2023-02-12T12:42:57;91995.25;;;3.12;81.01
6395;BME280;3230;42.588;23.358;2023-02-12T13:08:20;91983.44;;;2.58;81.99
6395;BME280;3230;42.588;23.358;2023-02-12T13:10:48;91989.78;;;2.62;81.23
6395;BME280;3230;42.588;23.358;2023-02-12T13:13:37;91992.56;;;2.60;81.73
6395;BME280;3230;42.588;23.358;2023-02-12T13:16:10;91996.38;;;2.64;81.80
6395;BME280;3230;42.588;23.358;2023-02-12T13:19:02;91997.78;;;2.53;82.63
6395;BME280;3230;42.588;23.358;2023-02-12T13:26:51;91996.19;;;2.39;83.85
6395;BME280;3230;42.588;23.358;2023-02-12T13:29:23;91997.56;;;2.48;83.06
6395;BME280;3230;42.588;23.358;2023-02-12T13:31:54;91995.59;;;2.30;83.27
6395;BME280;3230;42.588;23.358;2023-02-12T13:34:21;91998.59;;;2.47;83.55
6395;BME280;3230;42.588;23.358;2023-02-12T13:36:51;91999.34;;;2.41;82.61
6395;BME280;3230;42.588;23.358;2023-02-12T13:39:35;92005.53;;;2.40;82.36
6395;BME280;3230;42.588;23.358;2023-02-12T13:45:13;91997.78;;;2.20;81.86
6395;BME280;3230;42.588;23.358;2023-02-12T13:50:41;92016.88;;;2.12;82.16
6395;BME280;3230;42.588;23.358;2023-02-12T13:53:17;92019.06;;;2.29;81.16
6395;BME280;3230;42.588;23.358;2023-02-12T13:56:24;92020.84;;;2.21;82.07
6395;BME280;3230;42.588;23.358;2023-02-12T13:58:52;92024.81;;;2.11;81.82
6395;BME280;3230;42.588;23.358;2023-02-12T14:04:27;92018.47;;;2.20;81.95
6395;BME280;3230;42.588;23.358;2023-02-12T14:12:26;92023.84;;;2.45;80.95
6395;BME280;3230;42.588;23.358;2023-02-12T14:17:52;92029.81;;;2.39;81.29
6395;BME280;3230;42.588;23.358;2023-02-12T14:22:57;92043.13;;;2.22;81.62
6395;BME280;3230;42.588;23.358;2023-02-12T14:27:56;92048.47;;;2.14;83.08
6395;BME280;3230;42.588;23.358;2023-02-12T14:37:53;92062.56;;;1.98;83.05
6395;BME280;3230;42.588;23.358;2023-02-12T14:43:02;92076.31;;;1.99;82.79
6395;BME280;3230;42.588;23.358;2023-02-12T14:45:35;92072.91;;;1.91;83.44
6395;BME280;3230;42.588;23.358;2023-02-12T14:48:03;92078.53;;;2.08;83.38
6395;BME280;3230;42.588;23.358;2023-02-12T14:50:36;92084.88;;;2.06;83.18
6395;BME280;3230;42.588;23.358;2023-02-12T14:53:11;92084.69;;;2.14;83.31
6395;BME280;3230;42.588;23.358;2023-02-12T14:55:44;92091.28;;;2.17;83.46
6395;BME280;3230;42.588;23.358;2023-02-12T14:58:17;92088.84;;;2.02;83.88
6395;BME280;3230;42.588;23.358;2023-02-12T15:00:46;92090.44;;;2.03;84.30
6395;BME280;3230;42.588;23.358;2023-02-12T15:08:35;92110.66;;;1.79;85.84
6395;BME280;3230;42.588;23.358;2023-02-12T15:16:50;92128.00;;;1.50;86.47
6395;BME280;3230;42.588;23.358;2023-02-12T15:21:58;92139.03;;;1.31;86.90
6395;BME280;3230;42.588;23.358;2023-02-12T15:24:25;92143.84;;;1.40;86.55
6395;BME280;3230;42.588;23.358;2023-02-12T15:26:57;92139.03;;;1.31;87.17
6395;BME280;3230;42.588;23.358;2023-02-12T15:29:29;92148.75;;;1.28;87.52
6395;BME280;3230;42.588;23.358;2023-02-12T15:32:03;92153.69;;;1.23;87.40
6395;BME280;3230;42.588;23.358;2023-02-12T15:34:31;92157.59;;;1.19;87.80
6395;BME280;3230;42.588;23.358;2023-02-12T15:36:59;92162.19;;;1.17;88.65
6395;BME280;3230;42.588;23.358;2023-02-12T15:39:26;92170.09;;;1.16;88.88
6395;BME280;3230;42.588;23.358;2023-02-12T15:41:52;92166.94;;;1.14;88.25
6395;BME280;3230;42.588;23.358;2023-02-12T15:44:26;92167.91;;;1.13;88.58
6395;BME280;3230;42.588;23.358;2023-02-12T15:46:57;92169.13;;;1.17;89.05
6395;BME280;3230;42.588;23.358;2023-02-12T15:49:27;92183.81;;;1.16;88.22
6395;BME280;3230;42.588;23.358;2023-02-12T15:51:52;92172.88;;;1.14;87.98
6395;BME280;3230;42.588;23.358;2023-02-12T15:54:18;92176.28;;;1.15;88.48
6395;BME280;3230;42.588;23.358;2023-02-12T15:56:44;92191.78;;;1.21;87.64
6395;BME280;3230;42.588;23.358;2023-02-12T15:59:19;92188.13;;;1.09;89.71